Time;durP1;ratioP1;P1;durP2;ratioP2;P2;SDS_P1;SDS_P2;PMS_P1;PMS_P2;Temp;Humidity;BMP_temperature;BMP_pressure;BME280_temperature;BME280_humidity;BME280_pressure;Samples;Min_cycle;Max_cycle;Signal;HPM_P1;HPM_P2
2023/03/12 00:04:41;;;;;;;10.50;4.30;;;;;;;-6.25;100.00;96032.81;10415565;28;20584;-65
2023/03/12 00:09:41;;;;;;;7.10;3.40;;;;;;;-6.08;100.00;96039.69;10415107;28;20238;-61
2023/03/12 00:14:41;;;;;;;7.67;4.30;;;;;;;-6.30;100.00;96044.97;10415128;28;20219;-65
2023/03/12 00:19:42;;;;;;;10.47;5.07;;;;;;;-6.14;100.00;96045.06;10414731;28;20226;-64
2023/03/12 00:24:42;;;;;;;15.47;5.93;;;;;;;-6.03;100.00;96053.06;10414726;28;20202;-63
2023/03/12 00:29:42;;;;;;;12.93;4.30;;;;;;;-6.05;100.00;96052.28;10414435;28;20222;-64
2023/03/12 00:34:43;;;;;;;4.03;2.10;;;;;;;-6.04;100.00;96043.75;10414452;28;20207;-64
2023/03/12 00:39:43;;;;;;;5.57;2.30;;;;;;;-6.08;100.00;96043.97;10413978;28;20277;-64
2023/03/12 00:44:44;;;;;;;6.53;3.03;;;;;;;-6.13;100.00;96046.72;10396091;28;20194;-62
2023/03/12 00:49:45;;;;;;;6.30;3.10;;;;;;;-6.06;100.00;96044.72;10395949;28;20782;-64
2023/03/12 00:54:45;;;;;;;4.30;2.23;;;;;;;-5.99;100.00;96051.19;10413770;28;20190;-63
2023/03/12 00:59:46;;;;;;;6.03;2.60;;;;;;;-5.92;100.00;96052.53;10413516;28;20230;-64
2023/03/12 01:04:46;;;;;;;3.40;1.57;;;;;;;-6.07;100.00;96045.63;10413070;28;20207;-65
2023/03/12 01:09:46;;;;;;;7.37;2.70;;;;;;;-6.13;100.00;96042.44;10412180;28;20653;-63
2023/03/12 01:14:47;;;;;;;3.90;2.27;;;;;;;-6.32;100.00;96050.13;10393587;28;20622;-64
2023/03/12 01:19:47;;;;;;;5.67;2.27;;;;;;;-6.35;100.00;96054.53;10410836;28;20588;-65
2023/03/12 01:24:48;;;;;;;5.90;2.00;;;;;;;-6.19;100.00;96059.75;10411022;28;20196;-65
2023/03/12 01:29:49;;;;;;;3.93;2.30;;;;;;;-6.12;100.00;96061.13;10410359;28;20240;-65
2023/03/12 01:34:49;;;;;;;4.83;2.37;;;;;;;-6.25;100.00;96062.59;10396270;28;20189;-64
2023/03/12 01:39:50;;;;;;;4.30;2.37;;;;;;;-6.32;100.00;96065.41;10369011;28;20229;-65
2023/03/12 01:45:02;;;;;;;6.33;2.37;;;;;;;-6.42;100.00;96071.81;10368252;28;20255;-62
2023/03/12 01:50:05;;;;;;;11.50;2.73;;;;;;;-6.41;100.00;96063.28;10351484;28;20239;-64
2023/03/12 01:55:10;;;;;;;5.33;1.80;;;;;;;-6.55;100.00;96066.44;10367914;28;20196;-65
2023/03/12 02:00:22;;;;;;;4.57;2.00;;;;;;;-6.43;100.00;96072.72;10351317;28;20222;-65
2023/03/12 02:05:44;;;;;;;3.97;1.80;;;;;;;-6.54;100.00;96072.34;10367338;28;20195;-64
2023/03/12 02:10:45;;;;;;;4.40;2.10;;;;;;;-6.56;100.00;96067.34;10347517;22;984600;-63
2023/03/12 02:15:46;;;;;;;4.93;2.30;;;;;;;-6.48;100.00;96070.38;10416707;28;20185;-63
2023/03/12 02:20:58;;;;;;;2.37;1.80;;;;;;;-6.48;100.00;96062.75;10422994;28;20346;-60
2023/03/12 02:25:59;;;;;;;2.17;1.97;;;;;;;-6.47;100.00;96069.47;10406498;28;20192;-62
2023/03/12 02:31:02;;;;;;;4.60;2.40;;;;;;;-6.41;100.00;96075.22;10423006;28;20227;-63
2023/03/12 02:36:03;;;;;;;2.87;1.80;;;;;;;-6.37;100.00;96074.16;10423117;28;20256;-62
2023/03/12 02:41:26;;;;;;;5.03;2.13;;;;;;;-6.21;100.00;96072.56;10439334;28;20220;-63
2023/03/12 02:46:28;;;;;;;2.47;1.87;;;;;;;-6.33;100.00;96083.31;10428769;28;20205;-63
2023/03/12 02:51:28;;;;;;;4.13;1.87;;;;;;;-6.43;100.00;96085.47;10423945;28;20214;-62
2023/03/12 02:56:29;;;;;;;5.03;2.50;;;;;;;-6.52;100.00;96085.88;10422689;28;20683;-63
2023/03/12 03:01:32;;;;;;;7.00;2.00;;;;;;;-6.65;100.00;96083.84;10422023;28;20616;-62
2023/03/12 03:06:34;;;;;;;5.33;2.00;;;;;;;-6.67;100.00;96077.19;10422226;28;20195;-62
2023/03/12 03:11:35;;;;;;;9.03;2.00;;;;;;;-6.68;100.00;96078.06;10404940;28;20232;-60
2023/03/12 03:16:37;;;;;;;6.37;1.93;;;;;;;-6.63;100.00;96086.31;10421745;28;20197;-62
2023/03/12 03:21:37;;;;;;;4.07;2.00;;;;;;;-6.64;100.00;96090.59;10438614;28;20275;-62
2023/03/12 03:26:38;;;;;;;9.10;2.00;;;;;;;-6.69;100.00;96094.22;10418509;28;20655;-59
2023/03/12 03:31:39;;;;;;;5.70;1.83;;;;;;;-6.73;100.00;96095.28;10417024;28;20291;-62
2023/03/12 03:36:39;;;;;;;1.87;1.70;;;;;;;-6.85;100.00;96096.63;10416541;28;20198;-59
2023/03/12 03:41:46;;;;;;;5.17;1.70;;;;;;;-6.91;100.00;96104.53;10415246;28;20223;-62
2023/03/12 03:46:48;;;;;;;3.47;1.70;;;;;;;-7.01;100.00;96114.28;10414977;28;20287;-63
2023/03/12 03:51:50;;;;;;;1.83;1.47;;;;;;;-7.05;100.00;96123.72;10414908;28;20200;-62
2023/03/12 03:56:55;;;;;;;8.63;1.70;;;;;;;-7.08;100.00;96139.13;10414608;28;20217;-62
2023/03/12 04:01:56;;;;;;;3.10;1.60;;;;;;;-7.01;100.00;96144.81;10413148;28;20299;-61
2023/03/12 04:06:57;;;;;;;2.90;1.60;;;;;;;-7.07;100.00;96142.53;10414259;28;20604;-63
2023/03/12 04:11:59;;;;;;;5.50;1.67;;;;;;;-7.14;100.00;96138.56;10413886;28;20221;-62
2023/03/12 04:16:59;;;;;;;7.17;1.60;;;;;;;-7.01;100.00;96142.28;10415375;28;20189;-63
2023/03/12 04:22:00;;;;;;;2.27;1.80;;;;;;;-7.09;100.00;96139.19;10413627;28;20709;-63
2023/03/12 04:27:00;;;;;;;3.60;1.63;;;;;;;-7.03;100.00;96144.88;10413368;28;20215;-63
2023/03/12 04:32:01;;;;;;;2.63;1.43;;;;;;;-7.03;100.00;96133.84;10413315;28;20204;-63
2023/03/12 04:37:02;;;;;;;9.97;1.90;;;;;;;-7.04;100.00;96127.13;10412765;28;20274;-63
2023/03/12 04:42:03;;;;;;;7.87;2.07;;;;;;;-6.82;100.00;96125.31;10412845;28;20554;-63
2023/03/12 04:47:04;;;;;;;3.97;1.77;;;;;;;-6.43;100.00;96117.75;10412697;28;20199;-63
2023/03/12 04:52:05;;;;;;;3.60;1.87;;;;;;;-6.49;100.00;96127.31;10412374;28;20679;-63
2023/03/12 04:57:06;;;;;;;6.80;1.90;;;;;;;-6.65;100.00;96129.69;10413844;28;20186;-63
2023/03/12 05:02:06;;;;;;;4.57;1.70;;;;;;;-6.62;100.00;96131.28;10411594;28;20235;-63
2023/03/12 05:07:07;;;;;;;3.87;1.77;;;;;;;-6.74;100.00;96136.91;10412038;28;20212;-63
2023/03/12 05:12:07;;;;;;;2.87;1.97;;;;;;;-6.85;100.00;96137.34;10412996;28;20316;-63
2023/03/12 05:17:08;;;;;;;5.67;1.87;;;;;;;-6.61;100.00;96134.66;10411409;28;20189;-63
2023/03/12 05:22:08;;;;;;;5.03;2.00;;;;;;;-6.56;100.00;96136.13;10412777;28;20215;-63
2023/03/12 05:27:10;;;;;;;4.27;1.80;;;;;;;-6.49;100.00;96129.06;10411450;28;20203;-62
2023/03/12 05:32:10;;;;;;;1.40;1.30;;;;;;;-6.41;100.00;96132.09;10412750;28;20203;-61
2023/03/12 05:37:11;;;;;;;4.00;1.57;;;;;;;-6.45;100.00;96135.66;10412285;28;20614;-62
2023/03/12 05:42:12;;;;;;;5.70;2.03;;;;;;;-6.36;100.00;96129.34;10410484;28;20717;-60
2023/03/12 05:47:13;;;;;;;5.13;1.77;;;;;;;-6.20;100.00;96135.41;10411983;28;20227;-61
2023/03/12 05:52:15;;;;;;;8.30;1.97;;;;;;;-6.25;100.00;96132.22;10409408;28;20207;-60
2023/03/12 05:57:16;;;;;;;4.83;1.97;;;;;;;-6.24;100.00;96127.97;10410458;28;20184;-61
2023/03/12 06:02:16;;;;;;;2.57;1.60;;;;;;;-6.21;100.00;96133.75;10411288;28;20301;-63
2023/03/12 06:07:17;;;;;;;3.90;1.43;;;;;;;-6.01;100.00;96134.59;10410135;28;20282;-63
2023/03/12 06:12:18;;;;;;;3.17;1.70;;;;;;;-5.91;100.00;96135.78;10409772;28;20231;-63
2023/03/12 06:17:18;;;;;;;4.67;3.30;;;;;;;-5.66;100.00;96137.22;10409569;28;20250;-63
2023/03/12 06:22:20;;;;;;;22.27;7.77;;;;;;;-5.59;100.00;96133.44;10409767;28;20243;-64
2023/03/12 06:27:23;;;;;;;4.67;2.30;;;;;;;-5.59;100.00;96138.56;10409462;28;20189;-63
2023/03/12 06:32:23;;;;;;;5.30;2.50;;;;;;;-5.60;100.00;96140.28;10410806;28;20705;-62
2023/03/12 06:37:23;;;;;;;6.77;2.03;;;;;;;-5.54;100.00;96144.28;10410593;28;20204;-63
2023/03/12 06:42:25;;;;;;;7.17;3.13;;;;;;;-5.13;100.00;96138.09;10410367;28;20247;-63
2023/03/12 06:47:25;;;;;;;3.53;2.03;;;;;;;-4.34;100.00;96133.25;10410757;28;20197;-61
2023/03/12 06:52:26;;;;;;;7.47;3.53;;;;;;;-3.86;100.00;96117.97;10410240;28;20208;-62
2023/03/12 06:57:26;;;;;;;2.80;1.77;;;;;;;-3.36;100.00;96105.84;10410517;28;20190;-63
2023/03/12 07:02:26;;;;;;;4.00;2.60;;;;;;;-2.98;100.00;96082.34;10414272;28;20213;-62
2023/03/12 07:07:27;;;;;;;4.87;2.80;;;;;;;-2.49;100.00;96059.88;10418046;28;20281;-62
2023/03/12 07:12:27;;;;;;;6.20;2.43;;;;;;;-2.28;96.54;96047.47;10417625;28;20244;-62
2023/03/12 07:17:27;;;;;;;5.80;2.30;;;;;;;-1.73;93.79;96032.94;10417296;28;20231;-63
2023/03/12 07:22:28;;;;;;;2.63;1.27;;;;;;;-1.33;89.31;95990.09;10417341;28;20239;-60
2023/03/12 07:27:28;;;;;;;1.63;1.33;;;;;;;-0.88;86.30;95974.25;10416880;28;20204;-63
2023/03/12 07:32:29;;;;;;;6.83;2.20;;;;;;;-0.62;81.62;95935.66;10416896;28;20218;-63
2023/03/12 07:37:29;;;;;;;3.93;2.13;;;;;;;-0.31;79.48;95934.28;10416708;28;20231;-63
2023/03/12 07:42:30;;;;;;;6.23;1.67;;;;;;;-0.21;79.41;95944.78;10416351;28;20270;-62
2023/03/12 07:47:30;;;;;;;6.23;1.87;;;;;;;-0.49;79.16;95939.00;10415157;28;20281;-64
2023/03/12 07:52:31;;;;;;;7.73;2.20;;;;;;;-0.05;78.07;95935.00;10416160;28;20216;-63
2023/03/12 07:57:31;;;;;;;7.47;1.80;;;;;;;0.12;77.41;95938.97;10415988;28;20196;-64
2023/03/12 08:02:33;;;;;;;5.13;1.90;;;;;;;0.77;74.57;95916.16;10415637;28;20245;-64
2023/03/12 08:07:34;;;;;;;7.37;1.30;;;;;;;1.40;72.98;95913.09;10415590;28;20224;-64
2023/03/12 08:12:36;;;;;;;2.43;1.53;;;;;;;1.56;70.80;95886.91;10437756;22;20706;-60
2023/03/12 08:17:36;;;;;;;3.80;1.60;;;;;;;1.08;70.60;95889.81;10415145;28;20201;-62
2023/03/12 08:22:37;;;;;;;1.27;1.17;;;;;;;0.76;72.90;95936.91;10415066;28;20219;-64
2023/03/12 08:27:38;;;;;;;5.73;1.43;;;;;;;0.69;73.08;95952.00;10414894;28;20192;-64
2023/03/12 08:32:38;;;;;;;4.47;1.30;;;;;;;1.13;72.72;95947.00;10414709;28;20594;-61
2023/03/12 08:37:40;;;;;;;2.17;1.50;;;;;;;1.42;70.75;95929.28;10414651;28;20516;-62
2023/03/12 08:42:41;;;;;;;1.73;1.27;;;;;;;1.59;70.05;95915.06;10414484;28;20587;-60
2023/03/12 08:47:43;;;;;;;6.57;1.60;;;;;;;0.44;70.55;95915.16;10414356;28;20284;-64
2023/03/12 08:52:43;;;;;;;5.00;1.30;;;;;;;1.85;70.22;95954.31;10414342;28;20251;-61
2023/03/12 08:57:44;;;;;;;4.20;1.67;;;;;;;1.04;68.45;95871.97;10413905;28;20227;-61
2023/03/12 09:02:44;;;;;;;1.70;1.10;;;;;;;1.28;67.15;95863.25;10413551;28;20251;-61
2023/03/12 09:07:45;;;;;;;2.40;1.30;;;;;;;0.88;67.75;95885.22;10413576;28;20211;-63
2023/03/12 09:12:45;;;;;;;4.53;1.60;;;;;;;1.59;67.64;95882.34;10412910;28;20227;-63
2023/03/12 09:17:46;;;;;;;8.57;1.50;;;;;;;2.43;65.12;95848.00;10413020;28;20564;-64
2023/03/12 09:22:47;;;;;;;3.07;1.40;;;;;;;1.65;65.22;95842.28;10412466;28;20224;-63
2023/03/12 09:27:48;;;;;;;3.10;1.70;;;;;;;1.53;64.97;95856.16;10407636;28;20196;-64
2023/03/12 09:32:48;;;;;;;8.30;2.77;;;;;;;1.94;66.18;95878.66;10409137;28;20211;-64
2023/03/12 09:37:49;;;;;;;2.67;1.70;;;;;;;2.45;62.99;95820.28;10407610;28;20201;-67
2023/03/12 09:42:52;;;;;;;2.67;1.57;;;;;;;1.83;63.81;95813.34;10408866;28;20252;-64
2023/03/12 09:47:58;;;;;;;5.13;1.60;;;;;;;2.63;62.41;95804.16;10407346;28;20188;-66
2023/03/12 09:53:22;;;;;;;1.97;1.23;;;;;;;2.39;63.79;95828.53;10408608;28;20204;-67
2023/03/12 09:58:34;;;;;;;4.40;1.43;;;;;;;1.33;64.07;95811.31;10392878;28;20679;-68
2023/03/12 10:03:59;;;;;;;2.53;1.50;;;;;;;2.07;65.77;95868.19;10406892;28;20205;-67
2023/03/12 10:09:33;;;;;;;3.37;1.60;;;;;;;4.06;63.80;95866.84;10407896;28;20673;-67
2023/03/12 10:14:40;;;;;;;5.70;1.53;;;;;;;2.50;63.57;95806.97;10339233;28;20676;-67
2023/03/12 10:19:59;;;;;;;5.17;1.53;;;;;;;3.79;64.16;95841.59;10406635;28;20745;-67
2023/03/12 10:25:15;;;;;;;2.17;1.40;;;;;;;4.22;60.86;95779.91;10407627;28;20208;-66
2023/03/12 10:30:24;;;;;;;1.97;1.20;;;;;;;4.77;52.86;95629.50;10406837;28;20211;-66
2023/03/12 10:35:27;;;;;;;1.47;1.03;;;;;;;4.15;54.73;95675.16;10409004;28;20184;-65
2023/03/12 10:40:33;;;;;;;3.20;1.20;;;;;;;4.02;51.50;95589.97;10415984;28;20227;-64
2023/03/12 10:45:43;;;;;;;3.87;1.60;;;;;;;3.15;52.93;95626.28;10415858;28;20197;-64
2023/03/12 10:51:05;;;;;;;41.43;15.73;;;;;;;3.08;53.03;95625.22;10415759;28;20287;-62
2023/03/12 10:56:12;;;;;;;7.13;4.80;;;;;;;2.79;53.74;95640.75;10414973;28;20184;-62
2023/03/12 11:01:30;;;;;;;4.00;1.30;;;;;;;2.76;55.01;95662.50;10414952;28;20629;-63
2023/03/12 11:06:30;;;;;;;2.70;1.90;;;;;;;2.67;54.16;95671.06;10414596;28;20228;-63
2023/03/12 11:11:33;;;;;;;1.63;1.30;;;;;;;2.64;56.89;95734.22;10414562;28;20263;-63
2023/03/12 11:16:33;;;;;;;1.70;1.40;;;;;;;2.69;57.60;95728.63;10414067;28;20234;-63
2023/03/12 11:21:37;;;;;;;2.77;1.70;;;;;;;2.91;59.90;95763.84;10413967;28;20224;-63
2023/03/12 11:26:50;;;;;;;3.93;1.97;;;;;;;2.85;61.43;95775.50;10413676;28;20233;-63
2023/03/12 11:31:58;;;;;;;3.93;2.50;;;;;;;3.14;63.95;95838.63;10413215;28;20838;-63
2023/03/12 11:37:16;;;;;;;3.77;2.00;;;;;;;3.13;64.83;95863.69;10411776;28;21052;-62
2023/03/12 11:42:36;;;;;;;6.33;2.30;;;;;;;2.79;67.55;95889.03;10411365;28;20247;-63
2023/03/12 11:47:54;;;;;;;5.43;2.53;;;;;;;2.59;67.39;95888.91;10411405;28;20663;-63
2023/03/12 11:53:01;;;;;;;5.83;3.13;;;;;;;2.44;67.84;95875.50;10412214;28;20267;-63
2023/03/12 11:58:42;;;;;;;2.23;1.57;;;;;;;3.01;67.91;95856.97;10411407;28;20197;-62
2023/03/12 12:03:49;;;;;;;5.87;2.83;;;;;;;3.62;67.43;95839.69;10412438;28;20563;-62
2023/03/12 12:08:55;;;;;;;5.83;2.40;;;;;;;3.82;66.65;95820.59;10411912;28;20205;-62
2023/03/12 12:14:18;;;;;;;9.80;2.60;;;;;;;3.51;66.75;95805.19;10410417;28;20618;-62
2023/03/12 12:19:25;;;;;;;4.80;2.40;;;;;;;4.24;67.27;95835.03;10410118;28;20221;-61
2023/03/12 12:24:56;;;;;;;4.03;2.13;;;;;;;3.49;65.95;95788.16;10411651;28;20279;-62
2023/03/12 12:30:23;;;;;;;3.57;2.47;;;;;;;3.07;67.48;95791.78;10410677;28;20636;-63
2023/03/12 12:35:32;;;;;;;7.13;2.50;;;;;;;3.21;67.89;95791.38;10410895;28;20220;-63
2023/03/12 12:40:36;;;;;;;2.80;1.90;;;;;;;3.55;67.76;95790.19;10409328;28;20228;-63
2023/03/12 12:45:40;;;;;;;2.67;2.03;;;;;;;3.14;66.86;95751.47;10410847;28;20564;-63
2023/03/12 12:50:41;;;;;;;8.97;2.43;;;;;;;2.76;67.19;95737.50;10409470;28;20223;-64
2023/03/12 12:56:13;;;;;;;5.33;2.23;;;;;;;2.88;67.76;95727.03;10409644;28;20208;-64
2023/03/12 13:01:14;;;;;;;4.00;2.03;;;;;;;3.09;67.18;95734.72;10409361;28;20256;-64
2023/03/12 13:06:15;;;;;;;31.97;12.07;;;;;;;3.06;68.17;95751.31;10409126;28;20250;-62
2023/03/12 13:11:15;;;;;;;6.87;3.73;;;;;;;3.31;66.36;95718.94;10408226;28;20290;-64
2023/03/12 13:16:19;;;;;;;6.43;3.23;;;;;;;4.31;66.14;95731.59;10409093;28;20623;-65
2023/03/12 13:21:35;;;;;;;5.10;2.40;;;;;;;3.71;65.11;95710.19;10408244;28;20489;-64
2023/03/12 13:26:59;;;;;;;3.63;2.07;;;;;;;3.03;65.25;95676.53;10409857;28;20196;-64
2023/03/12 13:31:59;;;;;;;3.70;2.00;;;;;;;2.78;65.92;95685.66;10408590;28;20215;-64
2023/03/12 13:37:01;;;;;;;8.53;2.47;;;;;;;2.98;66.63;95727.88;10409546;28;20196;-64
2023/03/12 13:42:27;;;;;;;10.33;2.47;;;;;;;3.10;67.77;95744.13;10408123;28;20225;-63
2023/03/12 13:47:36;;;;;;;2.57;2.10;;;;;;;3.02;68.01;95737.03;10409179;28;20558;-63
2023/03/12 13:52:41;;;;;;;4.10;2.17;;;;;;;2.83;68.18;95748.97;10409097;28;20703;-63
2023/03/12 13:57:47;;;;;;;9.77;5.00;;;;;;;2.75;70.50;95804.88;10407825;28;20624;-64
2023/03/12 14:02:51;;;;;;;6.37;2.63;;;;;;;2.68;72.20;95836.44;10406962;28;20204;-64
2023/03/12 14:08:09;;;;;;;6.20;3.10;;;;;;;2.16;79.38;95945.88;10407773;28;20667;-63
2023/03/12 14:13:15;;;;;;;3.77;2.80;;;;;;;1.75;85.68;95971.47;10427502;23;20768;-63
2023/03/12 14:18:25;;;;;;;8.90;3.90;;;;;;;1.76;91.06;95953.28;10408102;28;20200;-62
2023/03/12 14:23:38;;;;;;;5.00;2.77;;;;;;;1.55;97.07;95940.28;10408272;28;20286;-63
2023/03/12 14:28:40;;;;;;;10.50;5.57;;;;;;;0.88;100.00;95947.09;10407426;28;20193;-63
2023/03/12 14:33:59;;;;;;;12.63;6.97;;;;;;;1.03;100.00;95923.69;10406628;28;20208;-63
2023/03/12 14:39:11;;;;;;;10.23;3.37;;;;;;;0.81;100.00;95920.16;10406253;28;20233;-63
2023/03/12 14:44:21;;;;;;;5.60;3.63;;;;;;;0.85;100.00;95911.25;10405717;28;20703;-64
2023/03/12 14:49:21;;;;;;;7.87;2.63;;;;;;;0.78;100.00;95911.81;10405940;28;20273;-64
2023/03/12 14:54:24;;;;;;;7.00;3.97;;;;;;;0.74;100.00;95894.97;10406787;28;20250;-65
2023/03/12 14:59:28;;;;;;;10.93;5.00;;;;;;;0.92;100.00;95872.94;10406272;28;20234;-64
2023/03/12 15:04:28;;;;;;;5.43;4.10;;;;;;;1.15;100.00;95857.41;10387795;28;20204;-65
2023/03/12 15:09:31;;;;;;;9.77;4.03;;;;;;;1.16;100.00;95846.16;10369536;28;20220;-65
2023/03/12 15:14:34;;;;;;;5.23;3.57;;;;;;;1.23;100.00;95826.69;10371438;28;20247;-64
2023/03/12 15:19:38;;;;;;;10.53;4.47;;;;;;;1.25;100.00;95819.66;10380400;28;20225;-65
2023/03/12 15:24:39;;;;;;;4.83;3.40;;;;;;;1.27;100.00;95797.13;10370945;28;20239;-64
2023/03/12 15:29:40;;;;;;;5.40;3.13;;;;;;;1.23;100.00;95791.38;10395671;28;20258;-65
2023/03/12 15:34:40;;;;;;;10.13;4.03;;;;;;;1.38;100.00;95791.94;10394931;28;20250;-65
2023/03/12 15:39:46;;;;;;;7.60;3.50;;;;;;;1.65;100.00;95764.84;10402254;28;20227;-65
2023/03/12 15:44:52;;;;;;;9.77;3.60;;;;;;;1.63;100.00;95738.34;10389169;28;20194;-62
2023/03/12 15:49:59;;;;;;;6.67;3.40;;;;;;;1.61;100.00;95735.06;10407159;28;20782;-65
2023/03/12 15:55:00;;;;;;;3.97;2.50;;;;;;;1.70;100.00;95728.31;10387774;28;20197;-63
2023/03/12 16:00:13;;;;;;;6.23;3.13;;;;;;;1.89;100.00;95733.59;10411897;28;20236;-63
2023/03/12 16:05:13;;;;;;;3.00;1.83;;;;;;;1.90;100.00;95721.50;10412023;28;20685;-64
2023/03/12 16:10:15;;;;;;;6.40;2.37;;;;;;;1.99;100.00;95731.09;10411615;28;20259;-64
2023/03/12 16:15:21;;;;;;;6.33;2.40;;;;;;;2.09;100.00;95726.78;10411259;28;20693;-62
2023/03/12 16:20:22;;;;;;;6.73;2.90;;;;;;;2.11;100.00;95740.41;10427016;28;20229;-64
2023/03/12 16:25:23;;;;;;;1.50;1.40;;;;;;;2.11;100.00;95750.75;10410622;28;20193;-64
2023/03/12 16:30:32;;;;;;;2.80;1.93;;;;;;;2.40;100.00;95751.81;10410961;28;20275;-63
2023/03/12 16:35:32;;;;;;;2.97;1.93;;;;;;;2.49;100.00;95769.13;10408502;28;20204;-64
2023/03/12 16:40:34;;;;;;;3.50;2.00;;;;;;;2.53;100.00;95761.91;10410332;28;20231;-64
2023/03/12 16:45:35;;;;;;;3.00;1.90;;;;;;;2.41;100.00;95787.88;10411181;28;20193;-64
2023/03/12 16:50:35;;;;;;;3.60;2.10;;;;;;;2.38;100.00;95793.28;10409425;28;20224;-64
2023/03/12 16:55:44;;;;;;;2.73;1.57;;;;;;;2.39;100.00;95791.50;10410687;28;20196;-63
2023/03/12 17:00:45;;;;;;;1.93;1.73;;;;;;;2.36;100.00;95809.88;10410078;28;20228;-64
2023/03/12 17:05:46;;;;;;;4.07;2.07;;;;;;;2.28;100.00;95795.00;10410183;28;20291;-64
2023/03/12 17:10:46;;;;;;;3.43;2.57;;;;;;;2.30;100.00;95800.88;10409822;28;20243;-62
2023/03/12 17:15:46;;;;;;;1.97;1.43;;;;;;;2.34;100.00;95804.81;10409872;28;20204;-64
2023/03/12 17:20:48;;;;;;;9.20;4.27;;;;;;;2.37;100.00;95811.50;10409358;28;20228;-64
2023/03/12 17:25:48;;;;;;;3.20;1.90;;;;;;;2.38;100.00;95818.34;10393122;28;20667;-62
2023/03/12 17:30:48;;;;;;;9.00;4.00;;;;;;;2.44;100.00;95825.56;10384998;28;20284;-63
2023/03/12 17:35:57;;;;;;;6.83;4.10;;;;;;;2.52;100.00;95840.44;10385930;28;20193;-64
2023/03/12 17:40:58;;;;;;;4.90;3.20;;;;;;;2.58;100.00;95860.59;10385141;28;20220;-64
2023/03/12 17:46:03;;;;;;;2.50;1.90;;;;;;;2.66;100.00;95847.84;10385994;28;20193;-64
2023/03/12 17:51:08;;;;;;;1.83;1.53;;;;;;;2.68;100.00;95843.38;10386187;28;20836;-61
2023/03/12 17:56:11;;;;;;;3.00;1.97;;;;;;;2.72;100.00;95844.75;10407938;28;20370;-64
2023/03/12 18:01:11;;;;;;;2.87;1.80;;;;;;;2.85;100.00;95857.47;10407694;28;20232;-63
2023/03/12 18:06:12;;;;;;;2.97;1.97;;;;;;;2.92;100.00;95876.69;10408306;28;20203;-63
2023/03/12 18:11:12;;;;;;;4.23;2.20;;;;;;;2.98;100.00;95852.06;10407476;28;20228;-61
2023/03/12 18:16:13;;;;;;;2.60;2.07;;;;;;;3.07;100.00;95851.28;10407249;28;20196;-62
2023/03/12 18:21:14;;;;;;;4.33;3.63;;;;;;;3.19;100.00;95852.00;10380262;28;20286;-64
2023/03/12 18:26:14;;;;;;;2.30;2.10;;;;;;;3.27;100.00;95861.69;10365134;28;20607;-63
2023/03/12 18:31:14;;;;;;;1.87;1.77;;;;;;;3.39;100.00;95873.59;10371503;28;20208;-64
2023/03/12 18:36:15;;;;;;;2.10;1.70;;;;;;;3.53;100.00;95878.38;10400030;28;20280;-64
2023/03/12 18:41:15;;;;;;;2.13;1.70;;;;;;;3.59;100.00;95878.81;10405799;28;20228;-62
2023/03/12 18:46:17;;;;;;;2.50;1.90;;;;;;;3.66;100.00;95875.53;10402710;28;20196;-63
2023/03/12 18:51:18;;;;;;;2.10;1.90;;;;;;;3.73;100.00;95870.63;10406251;28;20258;-63
2023/03/12 18:56:18;;;;;;;4.13;2.87;;;;;;;3.69;100.00;95889.97;10407605;28;20615;-64
2023/03/12 19:01:19;;;;;;;3.10;2.50;;;;;;;3.73;100.00;95876.63;10413899;28;20659;-62
2023/03/12 19:06:19;;;;;;;2.10;1.90;;;;;;;3.78;100.00;95876.22;10414054;28;20617;-64
2023/03/12 19:11:20;;;;;;;4.93;3.33;;;;;;;3.72;100.00;95874.16;10413685;28;20290;-64
2023/03/12 19:16:20;;;;;;;3.90;2.33;;;;;;;3.90;100.00;95889.88;10413372;28;20188;-61
2023/03/12 19:21:21;;;;;;;2.30;2.10;;;;;;;4.02;100.00;95891.38;10413340;28;20282;-64
2023/03/12 19:26:21;;;;;;;7.83;4.47;;;;;;;4.09;100.00;95892.47;10413178;28;20196;-63
2023/03/12 19:31:22;;;;;;;4.03;2.00;;;;;;;4.04;100.00;95899.00;10413119;28;20699;-64
2023/03/12 19:36:22;;;;;;;2.87;1.93;;;;;;;4.18;100.00;95890.00;10413038;28;20235;-61
2023/03/12 19:41:22;;;;;;;2.93;2.10;;;;;;;4.13;100.00;95899.97;10412609;28;20224;-62
2023/03/12 19:46:23;;;;;;;4.27;2.00;;;;;;;4.18;100.00;95890.84;10412505;28;20208;-62
2023/03/12 19:51:23;;;;;;;4.43;2.83;;;;;;;4.20;100.00;95881.16;10391779;28;20201;-64
2023/03/12 19:56:23;;;;;;;6.47;2.87;;;;;;;4.16;100.00;95890.16;10388041;28;20192;-61
2023/03/12 20:01:24;;;;;;;3.87;2.23;;;;;;;4.17;100.00;95907.34;10389239;28;20208;-60
2023/03/12 20:06:24;;;;;;;3.67;2.00;;;;;;;4.13;100.00;95899.97;10387254;28;20227;-64
2023/03/12 20:11:24;;;;;;;6.57;2.30;;;;;;;4.17;100.00;95902.16;10385705;28;20651;-63
2023/03/12 20:16:25;;;;;;;5.27;2.43;;;;;;;4.27;100.00;95905.56;10415029;23;20623;-66
2023/03/12 20:21:25;;;;;;;4.47;2.23;;;;;;;4.38;100.00;95914.16;10414716;28;20228;-65
2023/03/12 20:26:25;;;;;;;5.73;2.47;;;;;;;4.44;100.00;95911.00;10414788;28;20224;-66
2023/03/12 20:31:26;;;;;;;2.63;2.00;;;;;;;4.57;100.00;95916.72;10408042;28;20188;-66
2023/03/12 20:36:26;;;;;;;5.03;3.43;;;;;;;4.55;100.00;95923.84;10389440;28;20221;-66
2023/03/12 20:41:26;;;;;;;4.33;2.10;;;;;;;4.68;100.00;95920.13;10390465;28;20344;-66
2023/03/12 20:46:27;;;;;;;3.27;1.90;;;;;;;4.70;100.00;95913.00;10392731;28;20217;-66
2023/03/12 20:51:27;;;;;;;2.27;1.83;;;;;;;4.71;100.00;95907.69;10388990;28;20269;-66
2023/03/12 20:56:27;;;;;;;2.40;2.20;;;;;;;4.74;100.00;95910.00;10388747;28;20299;-63
2023/03/12 21:01:28;;;;;;;1.83;1.73;;;;;;;4.83;100.00;95914.34;10391292;28;20217;-65
2023/03/12 21:06:28;;;;;;;3.00;1.83;;;;;;;4.82;100.00;95917.91;10387816;28;20268;-64
2023/03/12 21:11:30;;;;;;;2.23;1.73;;;;;;;4.85;100.00;95909.03;10397258;28;20224;-66
2023/03/12 21:16:30;;;;;;;3.67;2.00;;;;;;;4.92;100.00;95909.28;10412261;28;20240;-66
2023/03/12 21:21:34;;;;;;;3.73;2.23;;;;;;;4.96;100.00;95916.66;10411646;28;20226;-65
2023/03/12 21:26:34;;;;;;;4.77;2.20;;;;;;;4.97;100.00;95920.06;10412178;28;20217;-65
2023/03/12 21:31:34;;;;;;;6.37;2.60;;;;;;;4.97;100.00;95902.69;10412003;28;20647;-66
2023/03/12 21:36:35;;;;;;;5.17;2.13;;;;;;;5.08;100.00;95901.69;10412269;28;20649;-66
2023/03/12 21:41:35;;;;;;;5.70;2.60;;;;;;;5.12;100.00;95897.88;10411852;28;20250;-66
2023/03/12 21:46:35;;;;;;;10.37;3.20;;;;;;;5.14;100.00;95892.53;10411504;28;20213;-66
2023/03/12 21:51:36;;;;;;;6.30;3.17;;;;;;;5.19;100.00;95892.91;10411861;28;20191;-66
2023/03/12 21:56:36;;;;;;;10.83;3.60;;;;;;;5.31;100.00;95890.94;10411238;28;20251;-67
2023/03/12 22:01:36;;;;;;;5.87;3.60;;;;;;;5.33;100.00;95869.09;10411695;28;20236;-64
2023/03/12 22:06:37;;;;;;;9.23;3.47;;;;;;;5.45;100.00;95866.28;10410672;28;20254;-66
2023/03/12 22:11:37;;;;;;;15.87;4.67;;;;;;;5.39;100.00;95859.91;10411471;28;20181;-66
2023/03/12 22:16:38;;;;;;;10.37;3.83;;;;;;;5.32;100.00;95859.66;10410870;28;20251;-67
2023/03/12 22:21:38;;;;;;;15.00;5.10;;;;;;;5.41;100.00;95875.34;10410795;28;20225;-67
2023/03/12 22:26:38;;;;;;;10.03;4.30;;;;;;;5.40;100.00;95860.72;10410793;28;20212;-66
2023/03/12 22:31:39;;;;;;;12.53;4.10;;;;;;;5.43;100.00;95856.03;10412523;28;20222;-67
2023/03/12 22:36:39;;;;;;;12.03;3.90;;;;;;;5.37;100.00;95864.41;10419070;28;20219;-67
2023/03/12 22:41:40;;;;;;;12.07;3.83;;;;;;;5.31;100.00;95845.06;10419067;28;20235;-67
2023/03/12 22:46:40;;;;;;;11.63;3.70;;;;;;;5.23;100.00;95842.34;10418869;28;20262;-66
2023/03/12 22:51:40;;;;;;;9.80;4.27;;;;;;;5.12;100.00;95837.34;10418688;28;20207;-67
2023/03/12 22:56:41;;;;;;;11.33;3.83;;;;;;;5.24;100.00;95836.19;10418464;28;20224;-67
2023/03/12 23:01:41;;;;;;;16.93;4.90;;;;;;;5.28;100.00;95844.50;10411600;28;20319;-67
2023/03/12 23:06:42;;;;;;;10.17;3.53;;;;;;;5.43;100.00;95844.84;10382674;28;20271;-66
2023/03/12 23:11:43;;;;;;;18.80;4.47;;;;;;;5.46;100.00;95842.75;10376698;28;20197;-67
2023/03/12 23:16:43;;;;;;;13.07;3.50;;;;;;;5.47;100.00;95839.19;10376418;28;20306;-67
2023/03/12 23:21:44;;;;;;;15.60;4.10;;;;;;;5.48;100.00;95840.00;10376362;28;20221;-66
2023/03/12 23:26:44;;;;;;;14.63;4.13;;;;;;;5.57;100.00;95846.13;10375584;28;20212;-66
2023/03/12 23:31:45;;;;;;;14.93;4.47;;;;;;;5.51;100.00;95830.16;10376354;28;20280;-66